createdAt,value
2022-08-16T00:01:11.693Z,2.55
2022-08-16T00:03:38.735Z,2.47
2022-08-16T00:06:07.760Z,2.50
2022-08-16T00:08:37.693Z,2.60
2022-08-16T00:11:15.207Z,2.45
2022-08-16T00:13:43.835Z,2.35
2022-08-16T00:17:01.676Z,2.22
2022-08-16T00:19:09.255Z,2.45
2022-08-16T00:21:35.826Z,2.50
2022-08-16T00:24:04.599Z,2.60
2022-08-16T00:26:34.498Z,2.70
2022-08-16T00:29:05.381Z,3.00
2022-08-16T00:31:59.921Z,2.95
2022-08-16T00:34:22.176Z,2.43
2022-08-16T00:37:08.826Z,2.72
2022-08-16T00:39:36.119Z,2.83
2022-08-16T00:42:03.475Z,2.95
2022-08-16T00:44:31.982Z,3.22
2022-08-16T00:47:06.540Z,3.10
2022-08-16T00:49:39.686Z,2.97
2022-08-16T00:52:30.298Z,2.97
2022-08-16T00:54:57.775Z,3.13
2022-08-16T00:57:24.325Z,3.17
2022-08-16T00:59:58.838Z,3.40
2022-08-16T01:02:31.245Z,3.50
2022-08-16T01:05:09.086Z,3.00
2022-08-16T01:07:50.657Z,3.10
2022-08-16T01:10:20.550Z,2.97
2022-08-16T01:12:47.288Z,3.80
2022-08-16T01:15:15.081Z,3.00
2022-08-16T01:17:43.310Z,3.60
2022-08-16T01:20:24.148Z,3.17
2022-08-16T01:23:23.775Z,3.10
2022-08-16T01:26:00.119Z,3.80
2022-08-16T01:28:45.607Z,2.90
2022-08-16T01:31:14.750Z,3.25
2022-08-16T01:33:44.514Z,3.38
2022-08-16T01:36:13.090Z,3.05
2022-08-16T01:38:46.819Z,2.83
2022-08-16T01:41:22.063Z,2.78
2022-08-16T01:43:53.938Z,3.50
2022-08-16T01:46:37.978Z,3.20
2022-08-16T01:49:15.868Z,3.00
2022-08-16T01:51:47.706Z,3.50
2022-08-16T01:54:15.546Z,3.22
2022-08-16T01:56:42.611Z,3.40
2022-08-16T01:59:16.058Z,3.55
2022-08-16T02:01:49.702Z,3.25
2022-08-16T02:04:40.043Z,2.90
2022-08-16T02:07:11.326Z,3.30
2022-08-16T02:09:39.750Z,3.53
2022-08-16T02:12:50.305Z,3.50
2022-08-16T02:14:55.367Z,3.50
2022-08-16T02:17:22.133Z,3.57
2022-08-16T02:19:58.486Z,3.42
2022-08-16T02:22:34.180Z,3.60
2022-08-16T02:25:09.709Z,3.67
2022-08-16T02:27:36.841Z,3.90
2022-08-16T02:30:06.356Z,3.83
2022-08-16T02:32:49.877Z,3.30
2022-08-16T02:35:17.233Z,3.40
2022-08-16T02:37:52.672Z,3.75
2022-08-16T02:40:21.193Z,3.72
2022-08-16T02:42:50.690Z,3.63
2022-08-16T02:45:19.846Z,4.03
2022-08-16T02:48:00.577Z,3.90
2022-08-16T02:51:03.177Z,3.50
2022-08-16T02:53:23.653Z,3.40
2022-08-16T02:55:51.155Z,4.17
2022-08-16T02:58:19.970Z,3.90
2022-08-16T03:00:55.715Z,4.45
2022-08-16T03:03:23.026Z,3.50
2022-08-16T03:05:53.127Z,3.60
2022-08-16T03:08:51.848Z,4.43
2022-08-16T03:11:16.569Z,3.83
2022-08-16T03:13:56.455Z,3.92
2022-08-16T03:16:38.087Z,4.03
2022-08-16T03:19:06.892Z,4.07
2022-08-16T03:21:37.800Z,3.80
2022-08-16T03:24:28.169Z,4.43
2022-08-16T03:26:58.705Z,4.35
2022-08-16T03:29:31.324Z,4.22
2022-08-16T03:31:59.121Z,4.32
2022-08-16T03:34:27.337Z,4.03
2022-08-16T03:36:54.923Z,4.78
2022-08-16T03:39:22.043Z,4.50
2022-08-16T03:41:51.275Z,4.07
2022-08-16T03:44:43.295Z,4.85
2022-08-16T03:47:13.016Z,4.30
2022-08-16T03:49:47.912Z,4.63
2022-08-16T03:52:23.302Z,4.38
2022-08-16T03:54:53.317Z,4.50
2022-08-16T03:57:20.871Z,4.70
2022-08-16T03:59:47.738Z,4.37
2022-08-16T04:02:22.294Z,4.43
2022-08-16T04:04:50.348Z,5.05
2022-08-16T04:07:16.986Z,5.45
2022-08-16T04:09:44.820Z,5.18
2022-08-16T04:12:52.181Z,4.97
2022-08-16T04:14:58.436Z,5.22
2022-08-16T04:17:24.968Z,4.70
2022-08-16T04:19:54.983Z,4.88
2022-08-16T04:22:27.691Z,4.30
2022-08-16T04:24:55.137Z,5.20
2022-08-16T04:27:24.569Z,4.68
2022-08-16T04:29:55.446Z,5.00
2022-08-16T04:32:29.990Z,5.10
2022-08-16T04:34:56.516Z,4.72
2022-08-16T04:37:23.078Z,4.43
2022-08-16T04:39:55.636Z,4.70
2022-08-16T04:42:26.159Z,4.93
2022-08-16T04:44:55.924Z,4.85
2022-08-16T04:47:25.595Z,4.60
2022-08-16T04:49:59.922Z,4.23
2022-08-16T04:52:34.900Z,4.07
2022-08-16T04:55:09.769Z,5.10
2022-08-16T04:57:41.358Z,4.57
2022-08-16T05:00:32.058Z,5.50
2022-08-16T05:03:08.704Z,4.63
2022-08-16T05:05:45.364Z,4.65
2022-08-16T05:08:28.735Z,4.97
2022-08-16T05:11:00.008Z,4.85
2022-08-16T05:13:40.278Z,5.15
2022-08-16T05:16:16.749Z,4.40
2022-08-16T05:18:47.836Z,5.20
2022-08-16T05:21:14.381Z,5.43
2022-08-16T05:23:40.986Z,5.25
2022-08-16T05:26:19.565Z,4.78
2022-08-16T05:28:47.929Z,5.30
2022-08-16T05:31:29.968Z,5.28
2022-08-16T05:34:03.035Z,5.15
2022-08-16T05:36:33.778Z,5.38
2022-08-16T05:39:02.690Z,5.10
2022-08-16T05:41:29.358Z,5.43
2022-08-16T05:44:00.159Z,5.05
2022-08-16T05:46:32.363Z,5.00
2022-08-16T05:49:06.127Z,4.45
2022-08-16T05:51:40.111Z,16.50
2022-08-16T05:54:09.761Z,5.50
2022-08-16T05:56:39.508Z,6.28
2022-08-16T05:59:07.497Z,6.13
2022-08-16T06:01:38.027Z,5.57
2022-08-16T06:04:12.799Z,6.13
2022-08-16T06:06:41.799Z,6.40
2022-08-16T06:09:11.590Z,5.82
2022-08-16T06:11:43.150Z,5.97
2022-08-16T06:14:11.113Z,6.20
2022-08-16T06:16:38.114Z,6.68
2022-08-16T06:19:05.119Z,8.57
2022-08-16T06:21:36.886Z,6.82
2022-08-16T06:24:53.374Z,7.03
2022-08-16T06:26:57.886Z,5.22
2022-08-16T06:29:25.077Z,5.95
2022-08-16T06:31:51.734Z,5.40
2022-08-16T06:34:55.738Z,6.20
2022-08-16T06:37:05.310Z,6.22
2022-08-16T06:39:34.768Z,4.93
2022-08-16T06:42:18.248Z,6.00
2022-08-16T06:44:46.377Z,5.67
2022-08-16T06:47:17.268Z,4.97
2022-08-16T06:49:52.734Z,6.03
2022-08-16T06:52:57.660Z,5.78
2022-08-16T06:55:13.054Z,6.25
2022-08-16T06:57:41.616Z,5.50
2022-08-16T07:00:24.116Z,5.43
2022-08-16T07:02:53.637Z,6.63
2022-08-16T07:05:27.363Z,5.75
2022-08-16T07:08:10.505Z,4.82
2022-08-16T07:10:38.704Z,5.93
2022-08-16T07:13:11.938Z,6.13
2022-08-16T07:15:50.502Z,6.72
2022-08-16T07:18:24.355Z,9.10
2022-08-16T07:20:53.378Z,6.60
2022-08-16T07:23:21.637Z,5.60
2022-08-16T07:26:06.993Z,6.05
2022-08-16T07:28:33.558Z,5.95
2022-08-16T07:31:01.980Z,5.85
2022-08-16T07:33:52.842Z,5.43
2022-08-16T07:36:21.965Z,5.40
2022-08-16T07:38:50.022Z,6.32
2022-08-16T07:41:17.205Z,9.20
2022-08-16T07:43:43.907Z,5.20
2022-08-16T07:46:39.419Z,5.10
2022-08-16T07:49:02.347Z,4.70
2022-08-16T07:51:34.685Z,5.25
2022-08-16T07:54:10.041Z,6.25
2022-08-16T07:56:37.543Z,5.45
2022-08-16T07:59:05.289Z,5.35
2022-08-16T08:01:31.849Z,4.90
2022-08-16T08:03:58.687Z,6.03
2022-08-16T08:06:28.559Z,5.53
2022-08-16T08:08:57.165Z,4.63
2022-08-16T08:11:28.439Z,5.22
2022-08-16T08:13:57.583Z,4.63
2022-08-16T08:16:31.032Z,4.82
2022-08-16T08:19:02.906Z,4.78
2022-08-16T08:21:59.950Z,4.32
2022-08-16T08:24:18.602Z,5.03
2022-08-16T08:26:50.174Z,4.67
2022-08-16T08:29:22.677Z,4.38
2022-08-16T08:31:52.506Z,4.93
2022-08-16T08:34:21.038Z,4.95
2022-08-16T08:36:48.838Z,5.00
2022-08-16T08:39:20.896Z,5.13
2022-08-16T08:41:49.530Z,4.55
2022-08-16T08:44:29.248Z,4.22
2022-08-16T08:47:11.063Z,4.03
2022-08-16T08:49:50.577Z,4.72
2022-08-16T08:52:33.657Z,3.83
2022-08-16T08:55:10.743Z,3.95
2022-08-16T08:57:45.228Z,4.68
2022-08-16T09:00:15.582Z,3.92
2022-08-16T09:02:51.753Z,4.60
2022-08-16T09:05:22.164Z,3.93
2022-08-16T09:08:00.563Z,4.22
2022-08-16T09:10:29.466Z,3.92
2022-08-16T09:12:57.106Z,4.10
2022-08-16T09:15:23.981Z,4.45
2022-08-16T09:17:54.854Z,3.70
2022-08-16T09:20:25.506Z,3.85
2022-08-16T09:22:53.024Z,3.97
2022-08-16T09:25:26.048Z,4.22
2022-08-16T09:27:57.905Z,4.13
2022-08-16T09:30:33.857Z,4.00
2022-08-16T09:33:06.831Z,3.85
2022-08-16T09:35:38.826Z,4.22
2022-08-16T09:38:08.817Z,3.63
2022-08-16T09:40:42.869Z,3.83
2022-08-16T09:43:46.543Z,3.93
2022-08-16T09:45:59.932Z,3.80
2022-08-16T09:48:43.929Z,3.95
2022-08-16T09:51:14.048Z,3.83
2022-08-16T09:53:41.772Z,4.10
2022-08-16T09:56:32.421Z,3.83
2022-08-16T09:59:03.697Z,4.47
2022-08-16T10:01:33.495Z,3.65
2022-08-16T10:04:04.155Z,4.38
2022-08-16T10:06:34.239Z,3.92
2022-08-16T10:09:08.348Z,4.00
2022-08-16T10:11:56.674Z,15.10
2022-08-16T10:14:38.650Z,5.65
2022-08-16T10:17:06.171Z,4.03
2022-08-16T10:19:33.838Z,4.10
2022-08-16T10:22:05.003Z,4.20
2022-08-16T10:24:32.617Z,4.40
2022-08-16T10:27:25.480Z,4.50
2022-08-16T10:30:01.108Z,4.38
2022-08-16T10:32:31.957Z,4.50
2022-08-16T10:34:59.211Z,4.30
2022-08-16T10:37:32.570Z,4.00
2022-08-16T10:40:14.772Z,4.35
2022-08-16T10:42:55.574Z,4.10
2022-08-16T10:45:22.205Z,4.20
2022-08-16T10:48:00.513Z,3.97
2022-08-16T10:50:32.388Z,3.80
2022-08-16T10:52:59.702Z,4.25
2022-08-16T10:55:44.217Z,4.32
2022-08-16T10:58:17.142Z,4.25
2022-08-16T11:00:45.986Z,3.87
2022-08-16T11:06:00.680Z,4.03
2022-08-16T11:08:35.788Z,3.75
2022-08-16T11:11:13.026Z,3.67
2022-08-16T11:14:11.533Z,4.07
2022-08-16T11:19:20.067Z,3.85
2022-08-16T11:24:42.151Z,3.83
2022-08-16T11:27:23.739Z,3.70
2022-08-16T11:29:54.762Z,3.90
2022-08-16T11:32:32.444Z,3.65
2022-08-16T11:35:11.002Z,3.55
2022-08-16T11:40:36.263Z,3.00
2022-08-16T11:43:04.066Z,3.40
2022-08-16T11:45:35.086Z,3.85
2022-08-16T11:48:04.609Z,3.53
2022-08-16T11:50:33.442Z,3.80
2022-08-16T11:53:02.427Z,3.20
2022-08-16T11:55:31.015Z,3.80
2022-08-16T11:57:57.674Z,3.35
2022-08-16T12:00:43.487Z,3.30
2022-08-16T12:03:15.277Z,3.80
2022-08-16T12:05:44.664Z,3.03
2022-08-16T12:08:12.549Z,3.63
2022-08-16T12:10:40.002Z,4.30
2022-08-16T12:13:07.751Z,3.63
2022-08-16T12:15:37.011Z,4.80
2022-08-16T12:18:06.949Z,3.93
2022-08-16T12:20:38.466Z,3.78
2022-08-16T12:23:06.693Z,4.85
2022-08-16T12:25:35.346Z,8.00
2022-08-16T12:28:03.016Z,3.92
2022-08-16T12:30:38.419Z,3.53
2022-08-16T12:33:07.371Z,4.75
2022-08-16T12:35:36.451Z,3.63
2022-08-16T12:38:23.094Z,3.60
2022-08-16T12:40:53.026Z,3.55
2022-08-16T12:43:23.560Z,3.20
2022-08-16T12:45:53.859Z,3.47
2022-08-16T12:48:43.731Z,3.42
2022-08-16T12:51:20.080Z,3.15
2022-08-16T12:53:53.612Z,3.33
2022-08-16T12:56:25.309Z,3.63
2022-08-16T12:58:55.993Z,3.05
2022-08-16T13:01:31.911Z,2.85
2022-08-16T13:04:11.984Z,2.83
2022-08-16T13:06:48.468Z,3.10
2022-08-16T13:09:21.290Z,3.30
2022-08-16T13:12:00.194Z,3.25
2022-08-16T13:14:37.991Z,3.17
2022-08-16T13:17:07.772Z,2.95
2022-08-16T13:20:03.720Z,3.35
2022-08-16T13:22:23.237Z,2.97
2022-08-16T13:24:52.143Z,3.67
2022-08-16T13:27:18.750Z,3.95
2022-08-16T13:29:47.409Z,3.15
2022-08-16T13:32:39.884Z,5.47
2022-08-16T13:35:08.147Z,3.77
2022-08-16T13:37:41.789Z,4.75
2022-08-16T13:40:09.352Z,2.90
2022-08-16T13:42:47.450Z,3.40
2022-08-16T13:45:15.861Z,3.20
2022-08-16T13:47:43.244Z,2.50
2022-08-16T13:50:10.853Z,2.72
2022-08-16T13:52:39.650Z,2.90
2022-08-16T13:55:17.554Z,3.55
2022-08-16T13:57:53.309Z,2.88
2022-08-16T14:00:31.650Z,2.30
2022-08-16T14:02:59.236Z,2.50
2022-08-16T14:05:26.851Z,2.38
2022-08-16T14:07:53.892Z,2.65
2022-08-16T14:10:21.224Z,2.70
2022-08-16T14:12:48.030Z,2.40
2022-08-16T14:15:20.295Z,2.13
2022-08-16T14:18:15.535Z,2.67
2022-08-16T14:20:33.439Z,2.85
2022-08-16T14:23:00.068Z,2.95
2022-08-16T14:25:27.135Z,2.53
2022-08-16T14:27:55.363Z,2.53
2022-08-16T14:30:23.206Z,2.58
2022-08-16T14:32:51.436Z,3.08
2022-08-16T14:35:22.430Z,2.42
2022-08-16T14:38:04.315Z,2.37
2022-08-16T14:40:32.009Z,1.90
2022-08-16T14:42:58.715Z,2.35
2022-08-16T14:45:34.094Z,2.22
2022-08-16T14:48:00.900Z,2.88
2022-08-16T14:50:28.049Z,2.50
2022-08-16T14:53:08.242Z,1.85
2022-08-16T14:55:37.780Z,2.30
2022-08-16T14:58:18.953Z,1.98
2022-08-16T15:00:47.489Z,2.33
2022-08-16T15:03:14.038Z,1.57
2022-08-16T15:05:42.337Z,2.28
2022-08-16T15:08:10.036Z,2.47
2022-08-16T15:10:42.730Z,2.25
2022-08-16T15:13:10.708Z,3.28
2022-08-16T15:15:39.089Z,1.80
2022-08-16T15:18:11.768Z,6.25
2022-08-16T15:20:39.469Z,2.80
2022-08-16T15:23:08.807Z,3.75
2022-08-16T15:25:43.147Z,8.85
2022-08-16T15:28:30.934Z,4.67
2022-08-16T15:31:03.451Z,10.27
2022-08-16T15:33:33.539Z,5.72
2022-08-16T15:36:02.318Z,2.45
2022-08-16T15:38:57.395Z,2.20
2022-08-16T15:41:42.932Z,2.37
2022-08-16T15:44:13.338Z,2.10
2022-08-16T15:46:56.761Z,2.30
2022-08-16T15:49:37.591Z,2.47
2022-08-16T15:52:39.061Z,2.50
2022-08-16T15:55:23.744Z,2.30
2022-08-16T15:57:56.599Z,1.90
2022-08-16T16:00:23.228Z,2.55
2022-08-16T16:03:08.417Z,2.30
2022-08-16T16:05:37.336Z,2.47
2022-08-16T16:08:12.190Z,2.70
2022-08-16T16:10:43.225Z,3.33
2022-08-16T16:13:10.641Z,5.03
2022-08-16T16:15:50.065Z,1.70
2022-08-16T16:18:18.337Z,2.47
2022-08-16T16:20:57.520Z,1.57
2022-08-16T16:23:32.697Z,1.77
2022-08-16T16:26:00.190Z,1.88
2022-08-16T16:29:05.133Z,2.05
2022-08-16T16:31:21.211Z,2.13
2022-08-16T16:33:51.921Z,1.93
2022-08-16T16:36:24.243Z,2.95
2022-08-16T16:38:53.833Z,2.75
2022-08-16T16:41:23.078Z,2.28
2022-08-16T16:43:53.620Z,2.30
2022-08-16T16:46:40.719Z,2.80
2022-08-16T16:49:10.329Z,1.90
2022-08-16T16:51:40.828Z,2.15
2022-08-16T16:54:09.229Z,1.98
2022-08-16T16:56:37.724Z,2.45
2022-08-16T16:59:10.095Z,3.10
2022-08-16T17:01:56.866Z,2.10
2022-08-16T17:04:31.286Z,2.00
2022-08-16T17:07:00.775Z,2.47
2022-08-16T17:09:27.571Z,1.80
2022-08-16T17:11:54.864Z,2.20
2022-08-16T17:14:32.214Z,1.50
2022-08-16T17:17:06.669Z,1.80
2022-08-16T17:19:34.140Z,2.03
2022-08-16T17:22:07.458Z,2.17
2022-08-16T17:24:45.094Z,1.40
2022-08-16T17:27:12.332Z,1.40
2022-08-16T17:29:47.565Z,2.08
2022-08-16T17:32:46.575Z,1.70
2022-08-16T17:35:18.436Z,1.70
2022-08-16T17:37:50.909Z,1.60
2022-08-16T17:40:25.809Z,1.98
2022-08-16T17:43:05.587Z,1.50
2022-08-16T17:45:33.126Z,1.70
2022-08-16T17:48:00.034Z,1.98
2022-08-16T17:50:28.981Z,2.13
2022-08-16T17:52:57.028Z,1.75
2022-08-16T17:55:30.955Z,2.05
2022-08-16T17:57:57.817Z,1.65
2022-08-16T18:00:25.267Z,1.90
2022-08-16T18:02:53.335Z,1.60
2022-08-16T18:05:20.427Z,1.55
2022-08-16T18:07:47.370Z,2.22
2022-08-16T18:10:21.250Z,2.28
2022-08-16T18:12:59.764Z,2.00
2022-08-16T18:15:26.541Z,1.60
2022-08-16T18:17:53.416Z,2.40
2022-08-16T18:20:40.624Z,2.22
2022-08-16T18:23:10.713Z,1.70
2022-08-16T18:25:44.481Z,2.33
2022-08-16T18:28:12.174Z,1.70
2022-08-16T18:30:39.081Z,2.45
2022-08-16T18:33:05.677Z,2.33
2022-08-16T18:35:32.500Z,2.15
2022-08-16T18:37:59.072Z,2.03
2022-08-16T18:40:26.641Z,1.80
2022-08-16T18:43:11.505Z,1.88
2022-08-16T18:45:41.844Z,2.20
2022-08-16T18:48:09.792Z,2.60
2022-08-16T18:50:59.129Z,2.13
2022-08-16T18:53:27.445Z,2.03
2022-08-16T18:55:59.767Z,2.03
2022-08-16T18:58:28.803Z,2.50
2022-08-16T19:00:57.426Z,2.47
2022-08-16T19:03:27.533Z,2.47
2022-08-16T19:06:20.645Z,3.17
2022-08-16T19:08:47.285Z,2.42
2022-08-16T19:11:19.857Z,2.53
2022-08-16T19:13:46.720Z,2.72
2022-08-16T19:16:14.289Z,3.00
2022-08-16T19:18:41.746Z,2.97
2022-08-16T19:21:11.297Z,2.80
2022-08-16T19:23:43.036Z,3.05
2022-08-16T19:26:24.752Z,2.72
2022-08-16T19:28:58.433Z,3.40
2022-08-16T19:31:29.822Z,3.17
2022-08-16T19:33:57.439Z,3.65
2022-08-16T19:36:36.554Z,3.60
2022-08-16T19:39:10.882Z,4.20
2022-08-16T19:41:41.007Z,28.05
2022-08-16T19:44:07.828Z,5.73
2022-08-16T19:46:35.403Z,8.30
2022-08-16T19:49:02.404Z,4.75
2022-08-16T19:51:28.994Z,3.92
2022-08-16T19:53:55.722Z,4.78
2022-08-16T19:56:25.555Z,5.10
2022-08-16T19:59:17.462Z,3.88
2022-08-16T20:01:42.262Z,3.58
2022-08-16T20:04:12.095Z,4.85
2022-08-16T20:06:39.336Z,5.10
2022-08-16T20:09:06.516Z,6.63
2022-08-16T20:11:34.699Z,8.15
2022-08-16T20:14:01.510Z,8.75
2022-08-16T20:16:28.116Z,9.25
2022-08-16T20:18:54.664Z,8.55
2022-08-16T20:21:21.262Z,10.13
2022-08-16T20:23:47.856Z,10.45
2022-08-16T20:26:14.502Z,11.25
2022-08-16T20:28:54.258Z,11.48
2022-08-16T20:31:25.577Z,11.13
2022-08-16T20:33:53.105Z,10.40
2022-08-16T20:36:19.708Z,10.80
2022-08-16T20:38:47.455Z,10.68
2022-08-16T20:41:16.228Z,9.60
2022-08-16T20:43:45.604Z,9.98
2022-08-16T20:46:13.438Z,8.33
2022-08-16T20:48:40.087Z,8.07
2022-08-16T20:51:10.332Z,8.45
2022-08-16T20:53:41.560Z,8.50
2022-08-16T20:56:10.166Z,7.85
2022-08-16T20:58:37.550Z,7.77
2022-08-16T21:01:05.961Z,7.88
2022-08-16T21:03:33.083Z,7.70
2022-08-16T21:06:03.868Z,7.28
2022-08-16T21:08:52.117Z,7.13
2022-08-16T21:11:18.156Z,7.37
2022-08-16T21:13:44.750Z,7.30
2022-08-16T21:16:11.527Z,7.00
2022-08-16T21:18:38.617Z,6.25
2022-08-16T21:21:05.156Z,6.90
2022-08-16T21:23:31.718Z,6.37
2022-08-16T21:25:59.825Z,5.90
2022-08-16T21:28:39.271Z,5.63
2022-08-16T21:31:13.111Z,6.45
2022-08-16T21:33:39.931Z,6.07
2022-08-16T21:36:06.850Z,6.90
2022-08-16T21:38:33.418Z,7.05
2022-08-16T21:41:01.437Z,7.25
2022-08-16T21:43:31.813Z,6.28
2022-08-16T21:46:03.061Z,7.13
2022-08-16T21:48:33.804Z,6.27
2022-08-16T21:51:00.989Z,7.20
2022-08-16T21:53:28.346Z,7.00
2022-08-16T21:55:57.821Z,7.07
2022-08-16T21:58:25.220Z,6.10
2022-08-16T22:00:51.946Z,5.80
2022-08-16T22:03:18.887Z,5.90
2022-08-16T22:06:11.516Z,5.95
2022-08-16T22:08:35.651Z,5.85
2022-08-16T22:11:12.293Z,6.07
2022-08-16T22:13:40.240Z,5.77
2022-08-16T22:16:07.651Z,5.78
2022-08-16T22:18:34.219Z,5.93
2022-08-16T22:21:00.775Z,6.53
2022-08-16T22:23:27.373Z,5.75
2022-08-16T22:25:55.455Z,5.67
2022-08-16T22:28:22.999Z,6.35
2022-08-16T22:30:50.272Z,6.05
2022-08-16T22:33:25.418Z,5.70
2022-08-16T22:35:55.368Z,6.00
2022-08-16T22:38:54.736Z,5.43
2022-08-16T22:41:09.245Z,5.30
2022-08-16T22:43:36.214Z,5.30
2022-08-16T22:46:02.965Z,5.53
2022-08-16T22:48:30.850Z,5.65
2022-08-16T22:51:05.981Z,4.80
2022-08-16T22:53:32.506Z,5.78
2022-08-16T22:55:59.210Z,5.53
2022-08-16T22:58:36.539Z,5.32
2022-08-16T23:01:06.287Z,4.95
2022-08-16T23:03:33.024Z,4.80
2022-08-16T23:06:00.423Z,5.30
2022-08-16T23:08:35.904Z,5.88
2022-08-16T23:11:06.691Z,5.10
2022-08-16T23:13:33.237Z,6.00
2022-08-16T23:16:10.679Z,5.97
2022-08-16T23:18:38.730Z,5.60
2022-08-16T23:21:08.901Z,5.68
2022-08-16T23:23:36.743Z,5.28
2022-08-16T23:26:44.873Z,4.75
2022-08-16T23:28:51.345Z,4.37
2022-08-16T23:31:17.996Z,4.57
2022-08-16T23:33:44.730Z,4.43
2022-08-16T23:36:11.880Z,3.92
2022-08-16T23:38:39.717Z,4.30
2022-08-16T23:41:11.666Z,4.43
2022-08-16T23:43:41.679Z,4.25
2022-08-16T23:46:11.687Z,4.00
2022-08-16T23:49:58.508Z,4.15
2022-08-16T23:51:24.926Z,4.00
2022-08-16T23:53:51.467Z,4.10
2022-08-16T23:56:20.619Z,4.20
2022-08-16T23:58:52.611Z,4.45
